Flight Track Log - Related Links

Times and Time Zones

All times are in EDT time to prevent confusion due to time zone crossing. See the TRS299 flight status page for this flight to view local times or setup timezone preferences in your user account.

Time Position Orientation Groundspeed Altitude Reporting Facility
EDT Latitude Longitude Course Direction KTS MPH feet Rate Location/Type
Fri 12:42:29 PM 37.4833 -77.3500 263° West 167 192 1,700  Level Potomac TRACON
Fri 12:43:47 PM 37.4750 -77.4367 263° West 204 235 4,700 2,331 Climbing Washington Center
Fri 12:44:48 PM 37.4758 -77.5153 271° West 215 247 7,100 2,508 Climbing Washington Center
Fri 12:45:49 PM 37.4681 -77.6067 264° West 234 269 9,800 2,319 Climbing Washington Center
Fri 12:46:47 PM 37.4500 -77.6925 255° West 269 310 11,700 1,765 Climbing Washington Center
Fri 12:47:48 PM 37.4250 -77.8017 254° West 301 346 13,300 1,983 Climbing Washington Center
Fri 12:48:48 PM 37.3936 -77.9183 251° West 334 384 15,700 2,281 Climbing Washington Center
Fri 12:49:49 PM 37.3619 -78.0350 251° West 351 404 17,900 1,983 Climbing Washington Center
Fri 12:50:49 PM 37.3281 -78.1697 252° West 361 415 19,700 1,068 Climbing Washington Center
Fri 12:51:47 PM 37.2939 -78.2964 251° West 371 427 20,000 303 Climbing Washington Center
Fri 12:52:48 PM 37.2783 -78.4239 261° West 376 433 20,300 984 Climbing Washington Center
Fri 12:53:49 PM 37.2797 -78.5467 271° West 381 438 22,000 1,613 Climbing Washington Center
Fri 12:54:47 PM 37.2719 -78.6819 266° West 387 445 23,500 1,008 Climbing Washington Center
Fri 12:55:48 PM 37.2683 -78.8228 268° West 394 453 24,000 246 Climbing Washington Center
Fri 12:56:49 PM 37.2622 -78.9633 267° West 400 460 24,000  Level Washington Center
Fri 12:57:49 PM 37.2600 -79.1172 269° West 400 460 24,000 100 Level Washington Center
Fri 12:58:49 PM 37.2494 -79.2578 265° West 405 466 24,200 763 Climbing Washington Center
Fri 12:59:47 PM 37.2203 -79.3894 254° West 405 466 25,500 1,322 Climbing Washington Center
Fri 01:00:47 PM 37.1908 -79.5286 255° West 411 473 26,800 1,438 Climbing Washington Center
Fri 01:01:48 PM 37.1592 -79.6678 254° West 411 473 28,400 1,587 Climbing Washington Center
Fri 01:02:48 PM 37.1342 -79.7864 255° West 405 466 30,000 632 Climbing Washington Center
Fri 01:04:20 PM 37.0867 -79.9983 254° West 381 438 30,000  Level Atlanta Center
Fri 01:05:20 PM 37.0589 -80.1142 253° West 381 438 30,000  Level Atlanta Center
Fri 01:06:20 PM 37.0297 -80.2456 254° West 387 445 30,000  Level Atlanta Center
Fri 01:07:20 PM 36.9814 -80.3647 243° Southwest 387 445 30,000  Level Atlanta Center
Fri 01:08:20 PM 36.9092 -80.4642 228° Southwest 382 440 30,000  Level Atlanta Center
Fri 01:09:20 PM 36.8225 -80.5717 225° Southwest 393 452 30,000  Level Atlanta Center
Fri 01:10:20 PM 36.7622 -80.6522 227° Southwest 401 461 30,000  Level Atlanta Center
Fri 01:11:20 PM 36.6839 -80.7589 228° Southwest 401 461 30,000  Level Atlanta Center
Fri 01:12:20 PM 36.6072 -80.8606 227° Southwest 401 461 30,000  Level Atlanta Center
Fri 01:13:20 PM 36.5328 -80.9617 228° Southwest 401 461 30,000  Level Atlanta Center
Fri 01:14:20 PM 36.4581 -81.0600 227° Southwest 401 461 30,000  Level Atlanta Center
Fri 01:15:20 PM 36.3811 -81.1633 227° Southwest 406 467 30,000  Level Atlanta Center
Fri 01:16:20 PM 36.3042 -81.2639 226° Southwest 406 467 30,000  Level Atlanta Center
Fri 01:17:20 PM 36.2192 -81.3750 227° Southwest 406 467 30,000  Level Atlanta Center
Fri 01:18:20 PM 36.1522 -81.4622 226° Southwest 401 461 30,000  Level Atlanta Center
Fri 01:19:20 PM 36.0750 -81.5647 227° Southwest 407 468 30,000  Level Atlanta Center
Fri 01:20:20 PM 35.9978 -81.6672 227° Southwest 407 468 30,000  Level Atlanta Center
Fri 01:21:20 PM 35.9183 -81.7644 225° Southwest 407 468 30,000  Level Atlanta Center
Fri 01:22:20 PM 35.8408 -81.8639 226° Southwest 407 468 30,000  Level Atlanta Center
Fri 01:23:20 PM 35.7611 -81.9633 225° Southwest 407 468 30,000  Level Atlanta Center
Fri 01:24:20 PM 35.6878 -82.0622 228° Southwest 407 468 30,000  Level Atlanta Center
Fri 01:25:20 PM 35.6081 -82.1614 225° Southwest 407 468 30,000  Level Atlanta Center
Fri 01:26:20 PM 35.5303 -82.2625 227° Southwest 407 468 30,000  Level Atlanta Center
Fri 01:27:20 PM 35.4481 -82.3639 225° Southwest 407 468 30,000 -50 Level Atlanta Center
Fri 01:28:20 PM 35.3661 -82.4675 226° Southwest 412 474 29,900 -850 Descending Atlanta Center
Fri 01:29:20 PM 35.2881 -82.5706 227° Southwest 412 474 28,300 -950 Descending Atlanta Center
Fri 01:30:20 PM 35.1850 -82.6742 219° Southwest 425 489 28,000 -150 Descending Atlanta Center
Fri 01:31:20 PM 35.0983 -82.7694 222° Southwest 430 495 28,000 -100 Level Atlanta Center
Fri 01:32:20 PM 35.0158 -82.8569 221° Southwest 435 501 27,800 -600 Descending Atlanta Center
Fri 01:33:20 PM 34.9144 -82.9622 220° Southwest 440 506 26,800 -1,000 Descending Atlanta Center
Fri 01:34:20 PM 34.8256 -83.0594 222° Southwest 440 506 25,800 -1,050 Descending Atlanta Center
Fri 01:35:20 PM 34.7364 -83.1542 221° Southwest 435 501 24,700 -900 Descending Atlanta Center
Fri 01:36:20 PM 34.6453 -83.2511 221° Southwest 435 501 24,000 -350 Descending Atlanta Center
Fri 01:37:20 PM 34.5583 -83.3478 222° Southwest 435 501 24,000 -350 Level Atlanta Center
Fri 01:38:20 PM 34.4689 -83.4417 221° Southwest 435 501 23,300 -1,450 Descending Atlanta Center
Fri 01:39:20 PM 34.3900 -83.5253 221° Southwest 435 501 21,100 3,350 Descending Atlanta Center
Fri 01:40:20 PM 34.3050 -83.6164 222° Southwest 423 487 30,000 -3,100 Climbing Atlanta Center
Fri 01:41:20 PM 34.2236 -83.6997 220° Southwest 403 464 14,900 -8,650 Descending Atlanta Center
Fri 01:42:20 PM 34.1467 -83.7828 222° Southwest 381 438 12,700 -1,450 Descending Atlanta Center
Fri 01:43:20 PM 34.0800 -83.8506 220° Southwest 338 389 12,000 -1,000 Descending Atlanta Center
Fri 01:44:02 PM 34.0333 -83.9000 221° Southwest 292 336 11,000 -1,588 Descending Atlanta TRACON
Fri 01:45:02 PM 33.9667 -83.9667 220° Southwest 269 310 9,300 -1,000 Descending Atlanta TRACON
Fri 01:46:02 PM 33.8833 -83.9667 180° South 285 328 9,000 -450 Descending Atlanta TRACON
Fri 01:47:02 PM 33.8167 -83.9667 180° South 278 320 8,400 -496 Descending Atlanta TRACON
Fri 01:48:03 PM 33.7500 -83.9667 180° South 280 322 8,000 -500 Descending Atlanta TRACON
Fri 01:49:02 PM 33.6667 -83.9833 189° South 272 313 7,400 -816 Descending Atlanta TRACON
Fri 01:50:08 PM 33.6333 -84.0667 244° Southwest 233 268 6,300 -991 Descending Atlanta TRACON
Fri 01:50:57 PM 33.6333 -84.1167 270° West 216 249 5,500 -991 Descending Atlanta TRACON
Fri 01:51:57 PM 33.6333 -84.1833 270° West 214 246 4,500 -950 Descending Atlanta TRACON
Fri 01:52:57 PM 33.6333 -84.2500 270° West 213 245 3,600 -950 Descending Atlanta TRACON
Fri 01:53:57 PM 33.6333 -84.3167 270° West 181 208 2,600 -895 Descending Atlanta TRACON
Fri 01:54:51 PM 33.6333 -84.3667 270° West 146 168 1,900 -778 Descending Atlanta TRACON
Fri 01:56:00 PM 33.6333 -84.4167 270° West  Level FlightAware Approximate
Fri 02:03:00 PM 33.6367 -84.4279 270° West  Level Estimated
Fri 02:04:00 PM 33.6367 -84.4279 North  Level Estimated

Login

Don't have an account? Register now (free) for customized features, flight alerts, and more!